sensor_id;sensor_type;location;lat;lon;timestamp;P1;durP1;ratioP1;P2;durP2;ratioP2
79790;SDS011;69278;52.220;5.172;2023-06-05T00:00:47;9.25;;;4.20;;
79790;SDS011;69278;52.220;5.172;2023-06-05T00:03:13;6.67;;;3.97;;
79790;SDS011;69278;52.220;5.172;2023-06-05T00:05:40;8.88;;;4.22;;
79790;SDS011;69278;52.220;5.172;2023-06-05T00:08:07;9.15;;;4.20;;
79790;SDS011;69278;52.220;5.172;2023-06-05T00:10:33;8.40;;;4.00;;
79790;SDS011;69278;52.220;5.172;2023-06-05T00:13:00;8.98;;;4.20;;
79790;SDS011;69278;52.220;5.172;2023-06-05T00:15:27;8.50;;;3.73;;
79790;SDS011;69278;52.220;5.172;2023-06-05T00:17:53;9.25;;;4.00;;
79790;SDS011;69278;52.220;5.172;2023-06-05T00:20:21;9.27;;;4.50;;
79790;SDS011;69278;52.220;5.172;2023-06-05T00:22:47;8.85;;;4.10;;
79790;SDS011;69278;52.220;5.172;2023-06-05T00:25:15;7.18;;;4.07;;
79790;SDS011;69278;52.220;5.172;2023-06-05T00:27:41;10.37;;;4.20;;
79790;SDS011;69278;52.220;5.172;2023-06-05T00:30:08;8.52;;;4.30;;
79790;SDS011;69278;52.220;5.172;2023-06-05T00:32:36;9.27;;;4.30;;
79790;SDS011;69278;52.220;5.172;2023-06-05T00:35:03;10.77;;;4.65;;
79790;SDS011;69278;52.220;5.172;2023-06-05T00:37:30;10.40;;;4.30;;
79790;SDS011;69278;52.220;5.172;2023-06-05T00:39:57;9.47;;;4.30;;
79790;SDS011;69278;52.220;5.172;2023-06-05T00:42:24;8.10;;;4.13;;
79790;SDS011;69278;52.220;5.172;2023-06-05T00:44:52;8.93;;;4.70;;
79790;SDS011;69278;52.220;5.172;2023-06-05T00:47:19;10.27;;;4.57;;
79790;SDS011;69278;52.220;5.172;2023-06-05T00:49:46;7.70;;;4.13;;
79790;SDS011;69278;52.220;5.172;2023-06-05T00:52:13;7.80;;;4.10;;
79790;SDS011;69278;52.220;5.172;2023-06-05T00:54:41;9.32;;;4.45;;
79790;SDS011;69278;52.220;5.172;2023-06-05T00:57:08;9.43;;;4.25;;
79790;SDS011;69278;52.220;5.172;2023-06-05T00:59:35;9.43;;;4.65;;
79790;SDS011;69278;52.220;5.172;2023-06-05T01:02:02;8.05;;;4.15;;
79790;SDS011;69278;52.220;5.172;2023-06-05T01:04:29;8.50;;;4.40;;
79790;SDS011;69278;52.220;5.172;2023-06-05T01:06:56;8.10;;;4.22;;
79790;SDS011;69278;52.220;5.172;2023-06-05T01:09:24;8.10;;;4.45;;
79790;SDS011;69278;52.220;5.172;2023-06-05T01:14:30;9.18;;;4.80;;
79790;SDS011;69278;52.220;5.172;2023-06-05T01:16:59;10.00;;;4.50;;
79790;SDS011;69278;52.220;5.172;2023-06-05T01:19:29;8.82;;;4.18;;
79790;SDS011;69278;52.220;5.172;2023-06-05T01:21:58;8.77;;;4.50;;
79790;SDS011;69278;52.220;5.172;2023-06-05T01:24:25;9.50;;;4.72;;
79790;SDS011;69278;52.220;5.172;2023-06-05T01:32:46;9.80;;;4.85;;
79790;SDS011;69278;52.220;5.172;2023-06-05T01:35:20;9.02;;;4.63;;
79790;SDS011;69278;52.220;5.172;2023-06-05T01:37:54;8.48;;;4.50;;
79790;SDS011;69278;52.220;5.172;2023-06-05T01:40:24;8.38;;;4.30;;
79790;SDS011;69278;52.220;5.172;2023-06-05T01:42:52;9.70;;;5.00;;
79790;SDS011;69278;52.220;5.172;2023-06-05T01:45:20;10.98;;;4.57;;
79790;SDS011;69278;52.220;5.172;2023-06-05T01:47:48;9.13;;;4.53;;
79790;SDS011;69278;52.220;5.172;2023-06-05T01:50:16;9.18;;;4.65;;
79790;SDS011;69278;52.220;5.172;2023-06-05T01:52:43;10.63;;;5.00;;
79790;SDS011;69278;52.220;5.172;2023-06-05T01:55:21;11.10;;;4.67;;
79790;SDS011;69278;52.220;5.172;2023-06-05T01:57:53;11.18;;;4.53;;
79790;SDS011;69278;52.220;5.172;2023-06-05T02:00:19;8.63;;;4.55;;
79790;SDS011;69278;52.220;5.172;2023-06-05T02:02:46;8.20;;;4.53;;
79790;SDS011;69278;52.220;5.172;2023-06-05T02:05:14;11.05;;;5.05;;
79790;SDS011;69278;52.220;5.172;2023-06-05T02:07:46;9.27;;;4.57;;
79790;SDS011;69278;52.220;5.172;2023-06-05T02:10:15;8.98;;;4.72;;
79790;SDS011;69278;52.220;5.172;2023-06-05T02:12:45;11.35;;;4.68;;
79790;SDS011;69278;52.220;5.172;2023-06-05T02:15:12;12.48;;;5.05;;
79790;SDS011;69278;52.220;5.172;2023-06-05T02:17:42;8.70;;;4.57;;
79790;SDS011;69278;52.220;5.172;2023-06-05T02:20:17;8.20;;;4.60;;
79790;SDS011;69278;52.220;5.172;2023-06-05T02:22:44;11.98;;;4.82;;
79790;SDS011;69278;52.220;5.172;2023-06-05T02:25:10;8.95;;;5.15;;
79790;SDS011;69278;52.220;5.172;2023-06-05T02:27:38;11.00;;;4.80;;
79790;SDS011;69278;52.220;5.172;2023-06-05T02:30:05;10.25;;;4.63;;
79790;SDS011;69278;52.220;5.172;2023-06-05T02:32:33;12.07;;;5.20;;
79790;SDS011;69278;52.220;5.172;2023-06-05T02:34:59;9.48;;;4.95;;
79790;SDS011;69278;52.220;5.172;2023-06-05T02:37:26;10.20;;;5.05;;
79790;SDS011;69278;52.220;5.172;2023-06-05T02:39:53;10.48;;;4.80;;
79790;SDS011;69278;52.220;5.172;2023-06-05T02:42:20;10.50;;;5.25;;
79790;SDS011;69278;52.220;5.172;2023-06-05T02:44:47;11.07;;;5.03;;
79790;SDS011;69278;52.220;5.172;2023-06-05T02:47:14;10.90;;;4.97;;
79790;SDS011;69278;52.220;5.172;2023-06-05T02:49:41;11.40;;;5.00;;
79790;SDS011;69278;52.220;5.172;2023-06-05T02:52:07;10.15;;;5.15;;
79790;SDS011;69278;52.220;5.172;2023-06-05T02:54:34;10.02;;;5.22;;
79790;SDS011;69278;52.220;5.172;2023-06-05T02:57:01;10.90;;;5.20;;
79790;SDS011;69278;52.220;5.172;2023-06-05T02:59:27;12.02;;;5.22;;
79790;SDS011;69278;52.220;5.172;2023-06-05T03:01:54;11.48;;;5.63;;
79790;SDS011;69278;52.220;5.172;2023-06-05T03:04:20;10.07;;;5.32;;
79790;SDS011;69278;52.220;5.172;2023-06-05T03:06:50;9.95;;;5.10;;
79790;SDS011;69278;52.220;5.172;2023-06-05T03:09:19;8.17;;;4.27;;
79790;SDS011;69278;52.220;5.172;2023-06-05T03:11:46;9.80;;;4.85;;
79790;SDS011;69278;52.220;5.172;2023-06-05T03:14:12;7.65;;;4.20;;
79790;SDS011;69278;52.220;5.172;2023-06-05T03:16:39;11.32;;;4.95;;
79790;SDS011;69278;52.220;5.172;2023-06-05T03:19:09;10.73;;;4.85;;
79790;SDS011;69278;52.220;5.172;2023-06-05T03:21:39;7.77;;;4.27;;
79790;SDS011;69278;52.220;5.172;2023-06-05T03:24:08;8.57;;;4.40;;
79790;SDS011;69278;52.220;5.172;2023-06-05T03:26:36;9.68;;;4.78;;
79790;SDS011;69278;52.220;5.172;2023-06-05T03:29:03;8.70;;;4.78;;
79790;SDS011;69278;52.220;5.172;2023-06-05T03:31:30;9.73;;;5.05;;
79790;SDS011;69278;52.220;5.172;2023-06-05T03:33:57;8.53;;;4.40;;
79790;SDS011;69278;52.220;5.172;2023-06-05T03:36:24;9.18;;;4.65;;
79790;SDS011;69278;52.220;5.172;2023-06-05T03:38:51;10.25;;;4.65;;
79790;SDS011;69278;52.220;5.172;2023-06-05T03:41:17;9.85;;;4.85;;
79790;SDS011;69278;52.220;5.172;2023-06-05T03:43:44;11.80;;;5.10;;
79790;SDS011;69278;52.220;5.172;2023-06-05T03:46:10;9.60;;;4.37;;
79790;SDS011;69278;52.220;5.172;2023-06-05T03:48:45;10.30;;;4.82;;
79790;SDS011;69278;52.220;5.172;2023-06-05T03:51:12;9.48;;;4.93;;
79790;SDS011;69278;52.220;5.172;2023-06-05T03:53:39;8.38;;;4.50;;
79790;SDS011;69278;52.220;5.172;2023-06-05T03:56:06;9.13;;;4.47;;
79790;SDS011;69278;52.220;5.172;2023-06-05T03:58:33;11.67;;;4.30;;
79790;SDS011;69278;52.220;5.172;2023-06-05T04:00:59;10.38;;;4.88;;
79790;SDS011;69278;52.220;5.172;2023-06-05T04:03:26;12.30;;;4.70;;
79790;SDS011;69278;52.220;5.172;2023-06-05T04:05:53;9.45;;;4.72;;
79790;SDS011;69278;52.220;5.172;2023-06-05T04:08:20;8.23;;;4.57;;
79790;SDS011;69278;52.220;5.172;2023-06-05T04:10:46;8.10;;;4.20;;
79790;SDS011;69278;52.220;5.172;2023-06-05T04:13:13;8.65;;;4.40;;
79790;SDS011;69278;52.220;5.172;2023-06-05T04:15:39;10.82;;;4.72;;
79790;SDS011;69278;52.220;5.172;2023-06-05T04:18:06;10.15;;;4.78;;
79790;SDS011;69278;52.220;5.172;2023-06-05T04:20:32;7.57;;;4.25;;
79790;SDS011;69278;52.220;5.172;2023-06-05T04:22:59;9.87;;;4.63;;
79790;SDS011;69278;52.220;5.172;2023-06-05T04:25:25;10.05;;;4.53;;
79790;SDS011;69278;52.220;5.172;2023-06-05T04:27:55;9.90;;;5.20;;
79790;SDS011;69278;52.220;5.172;2023-06-05T04:30:22;7.72;;;4.65;;
79790;SDS011;69278;52.220;5.172;2023-06-05T04:32:49;9.18;;;4.45;;
79790;SDS011;69278;52.220;5.172;2023-06-05T04:35:21;10.57;;;5.07;;
79790;SDS011;69278;52.220;5.172;2023-06-05T04:37:48;10.45;;;4.88;;
79790;SDS011;69278;52.220;5.172;2023-06-05T04:40:17;8.70;;;4.82;;
79790;SDS011;69278;52.220;5.172;2023-06-05T04:42:45;8.52;;;4.88;;
79790;SDS011;69278;52.220;5.172;2023-06-05T04:45:12;9.30;;;4.70;;
79790;SDS011;69278;52.220;5.172;2023-06-05T04:47:39;11.53;;;4.70;;
79790;SDS011;69278;52.220;5.172;2023-06-05T04:50:05;9.93;;;4.57;;
79790;SDS011;69278;52.220;5.172;2023-06-05T04:52:33;7.68;;;4.10;;
79790;SDS011;69278;52.220;5.172;2023-06-05T04:55:06;7.90;;;4.40;;
79790;SDS011;69278;52.220;5.172;2023-06-05T04:57:33;7.75;;;4.03;;
79790;SDS011;69278;52.220;5.172;2023-06-05T04:59:59;8.43;;;4.30;;
79790;SDS011;69278;52.220;5.172;2023-06-05T05:02:30;8.00;;;3.50;;
79790;SDS011;69278;52.220;5.172;2023-06-05T05:04:57;10.88;;;4.45;;
79790;SDS011;69278;52.220;5.172;2023-06-05T05:07:23;9.18;;;3.80;;
79790;SDS011;69278;52.220;5.172;2023-06-05T05:09:52;10.45;;;4.90;;
79790;SDS011;69278;52.220;5.172;2023-06-05T05:12:19;8.87;;;4.23;;
79790;SDS011;69278;52.220;5.172;2023-06-05T05:14:45;8.95;;;4.90;;
79790;SDS011;69278;52.220;5.172;2023-06-05T05:17:12;10.25;;;4.63;;
79790;SDS011;69278;52.220;5.172;2023-06-05T05:19:40;8.50;;;4.60;;
79790;SDS011;69278;52.220;5.172;2023-06-05T05:22:07;10.32;;;5.22;;
79790;SDS011;69278;52.220;5.172;2023-06-05T05:24:33;8.20;;;4.63;;
79790;SDS011;69278;52.220;5.172;2023-06-05T05:27:00;9.07;;;4.93;;
79790;SDS011;69278;52.220;5.172;2023-06-05T05:29:26;9.35;;;4.95;;
79790;SDS011;69278;52.220;5.172;2023-06-05T05:31:53;11.50;;;5.50;;
79790;SDS011;69278;52.220;5.172;2023-06-05T05:34:20;11.45;;;5.55;;
79790;SDS011;69278;52.220;5.172;2023-06-05T05:36:47;8.77;;;4.47;;
79790;SDS011;69278;52.220;5.172;2023-06-05T05:39:13;11.88;;;5.40;;
79790;SDS011;69278;52.220;5.172;2023-06-05T05:41:40;7.70;;;4.75;;
79790;SDS011;69278;52.220;5.172;2023-06-05T05:44:06;13.32;;;5.50;;
79790;SDS011;69278;52.220;5.172;2023-06-05T05:46:33;9.80;;;5.13;;
79790;SDS011;69278;52.220;5.172;2023-06-05T05:48:59;8.80;;;5.27;;
79790;SDS011;69278;52.220;5.172;2023-06-05T05:51:26;9.23;;;5.00;;
79790;SDS011;69278;52.220;5.172;2023-06-05T05:53:52;10.55;;;5.25;;
79790;SDS011;69278;52.220;5.172;2023-06-05T05:56:19;8.02;;;4.95;;
79790;SDS011;69278;52.220;5.172;2023-06-05T05:58:45;11.80;;;4.82;;
79790;SDS011;69278;52.220;5.172;2023-06-05T06:01:13;8.07;;;4.83;;
79790;SDS011;69278;52.220;5.172;2023-06-05T06:03:40;9.05;;;4.25;;
79790;SDS011;69278;52.220;5.172;2023-06-05T06:06:06;11.02;;;5.55;;
79790;SDS011;69278;52.220;5.172;2023-06-05T06:08:34;9.40;;;4.28;;
79790;SDS011;69278;52.220;5.172;2023-06-05T06:11:01;9.93;;;4.68;;
79790;SDS011;69278;52.220;5.172;2023-06-05T06:13:32;7.33;;;4.00;;
79790;SDS011;69278;52.220;5.172;2023-06-05T06:16:00;10.05;;;5.15;;
79790;SDS011;69278;52.220;5.172;2023-06-05T06:18:28;10.38;;;4.60;;
79790;SDS011;69278;52.220;5.172;2023-06-05T06:20:54;7.68;;;4.63;;
79790;SDS011;69278;52.220;5.172;2023-06-05T06:23:21;8.80;;;4.70;;
79790;SDS011;69278;52.220;5.172;2023-06-05T06:25:48;8.77;;;4.83;;
79790;SDS011;69278;52.220;5.172;2023-06-05T06:28:15;8.65;;;4.60;;
79790;SDS011;69278;52.220;5.172;2023-06-05T06:30:42;10.63;;;5.15;;
79790;SDS011;69278;52.220;5.172;2023-06-05T06:33:09;10.48;;;5.00;;
79790;SDS011;69278;52.220;5.172;2023-06-05T06:35:36;11.77;;;5.72;;
79790;SDS011;69278;52.220;5.172;2023-06-05T06:38:02;11.27;;;5.60;;
79790;SDS011;69278;52.220;5.172;2023-06-05T06:40:29;11.07;;;5.90;;
79790;SDS011;69278;52.220;5.172;2023-06-05T06:42:55;10.48;;;6.00;;
79790;SDS011;69278;52.220;5.172;2023-06-05T06:45:22;10.63;;;6.07;;
79790;SDS011;69278;52.220;5.172;2023-06-05T06:47:48;10.82;;;5.45;;
79790;SDS011;69278;52.220;5.172;2023-06-05T06:50:32;10.70;;;5.37;;
79790;SDS011;69278;52.220;5.172;2023-06-05T06:52:58;10.15;;;5.78;;
79790;SDS011;69278;52.220;5.172;2023-06-05T06:55:25;9.23;;;5.30;;
79790;SDS011;69278;52.220;5.172;2023-06-05T06:57:52;7.38;;;4.65;;
79790;SDS011;69278;52.220;5.172;2023-06-05T07:00:18;10.13;;;4.90;;
79790;SDS011;69278;52.220;5.172;2023-06-05T07:02:46;8.30;;;5.23;;
79790;SDS011;69278;52.220;5.172;2023-06-05T07:05:13;7.80;;;4.55;;
79790;SDS011;69278;52.220;5.172;2023-06-05T07:07:40;9.43;;;4.13;;
79790;SDS011;69278;52.220;5.172;2023-06-05T07:10:07;10.43;;;5.25;;
79790;SDS011;69278;52.220;5.172;2023-06-05T07:12:34;7.47;;;4.38;;
79790;SDS011;69278;52.220;5.172;2023-06-05T07:15:00;9.40;;;4.40;;
79790;SDS011;69278;52.220;5.172;2023-06-05T07:17:27;10.02;;;3.92;;
79790;SDS011;69278;52.220;5.172;2023-06-05T07:19:56;7.40;;;4.25;;
79790;SDS011;69278;52.220;5.172;2023-06-05T07:22:23;9.25;;;4.90;;
79790;SDS011;69278;52.220;5.172;2023-06-05T07:24:53;8.43;;;4.15;;
79790;SDS011;69278;52.220;5.172;2023-06-05T07:27:20;22.73;;;5.10;;
79790;SDS011;69278;52.220;5.172;2023-06-05T07:29:46;10.65;;;4.10;;
79790;SDS011;69278;52.220;5.172;2023-06-05T07:32:16;9.52;;;3.92;;
79790;SDS011;69278;52.220;5.172;2023-06-05T07:34:42;9.95;;;4.00;;
79790;SDS011;69278;52.220;5.172;2023-06-05T07:37:09;11.20;;;4.35;;
79790;SDS011;69278;52.220;5.172;2023-06-05T07:39:35;9.43;;;4.23;;
79790;SDS011;69278;52.220;5.172;2023-06-05T07:42:02;8.15;;;4.03;;
79790;SDS011;69278;52.220;5.172;2023-06-05T07:44:29;7.32;;;4.30;;
79790;SDS011;69278;52.220;5.172;2023-06-05T07:46:56;7.82;;;3.80;;
79790;SDS011;69278;52.220;5.172;2023-06-05T07:49:23;7.13;;;4.30;;
79790;SDS011;69278;52.220;5.172;2023-06-05T07:51:50;7.53;;;4.30;;
79790;SDS011;69278;52.220;5.172;2023-06-05T07:54:17;9.60;;;4.20;;
79790;SDS011;69278;52.220;5.172;2023-06-05T07:56:45;9.32;;;4.20;;
79790;SDS011;69278;52.220;5.172;2023-06-05T07:59:15;11.02;;;4.10;;
79790;SDS011;69278;52.220;5.172;2023-06-05T08:01:43;7.57;;;3.88;;
79790;SDS011;69278;52.220;5.172;2023-06-05T08:04:09;7.07;;;3.90;;
79790;SDS011;69278;52.220;5.172;2023-06-05T08:06:39;7.32;;;3.78;;
79790;SDS011;69278;52.220;5.172;2023-06-05T08:09:06;8.45;;;4.50;;
79790;SDS011;69278;52.220;5.172;2023-06-05T08:11:36;6.57;;;4.15;;
79790;SDS011;69278;52.220;5.172;2023-06-05T08:14:06;7.90;;;4.43;;
79790;SDS011;69278;52.220;5.172;2023-06-05T08:16:33;11.40;;;4.20;;
79790;SDS011;69278;52.220;5.172;2023-06-05T08:19:00;8.00;;;4.10;;
79790;SDS011;69278;52.220;5.172;2023-06-05T08:21:27;7.13;;;4.28;;
79790;SDS011;69278;52.220;5.172;2023-06-05T08:23:54;8.63;;;3.97;;
79790;SDS011;69278;52.220;5.172;2023-06-05T08:26:21;7.43;;;3.95;;
79790;SDS011;69278;52.220;5.172;2023-06-05T08:28:48;9.10;;;4.00;;
79790;SDS011;69278;52.220;5.172;2023-06-05T08:31:15;7.45;;;4.45;;
79790;SDS011;69278;52.220;5.172;2023-06-05T08:33:42;7.72;;;4.32;;
79790;SDS011;69278;52.220;5.172;2023-06-05T08:36:09;8.82;;;4.40;;
79790;SDS011;69278;52.220;5.172;2023-06-05T08:38:35;9.43;;;4.47;;
79790;SDS011;69278;52.220;5.172;2023-06-05T08:41:06;8.40;;;4.43;;
79790;SDS011;69278;52.220;5.172;2023-06-05T08:43:37;7.60;;;4.05;;
79790;SDS011;69278;52.220;5.172;2023-06-05T08:46:05;8.60;;;4.50;;
79790;SDS011;69278;52.220;5.172;2023-06-05T08:48:41;11.02;;;4.90;;
79790;SDS011;69278;52.220;5.172;2023-06-05T08:51:11;8.20;;;4.68;;
79790;SDS011;69278;52.220;5.172;2023-06-05T08:53:39;8.00;;;4.40;;
79790;SDS011;69278;52.220;5.172;2023-06-05T08:56:08;8.20;;;4.30;;
79790;SDS011;69278;52.220;5.172;2023-06-05T08:58:35;10.10;;;4.70;;
79790;SDS011;69278;52.220;5.172;2023-06-05T09:01:02;7.78;;;4.22;;
79790;SDS011;69278;52.220;5.172;2023-06-05T09:03:32;7.28;;;3.72;;
79790;SDS011;69278;52.220;5.172;2023-06-05T09:05:59;7.33;;;3.97;;
79790;SDS011;69278;52.220;5.172;2023-06-05T09:08:30;7.53;;;4.50;;
79790;SDS011;69278;52.220;5.172;2023-06-05T09:13:56;6.82;;;4.10;;
79790;SDS011;69278;52.220;5.172;2023-06-05T09:19:09;7.97;;;4.30;;
79790;SDS011;69278;52.220;5.172;2023-06-05T09:21:37;17.05;;;4.00;;
79790;SDS011;69278;52.220;5.172;2023-06-05T09:26:53;9.27;;;3.80;;
79790;SDS011;69278;52.220;5.172;2023-06-05T09:29:28;7.28;;;4.03;;
79790;SDS011;69278;52.220;5.172;2023-06-05T09:31:57;7.30;;;4.00;;
79790;SDS011;69278;52.220;5.172;2023-06-05T09:34:34;6.13;;;3.88;;
79790;SDS011;69278;52.220;5.172;2023-06-05T09:37:06;8.80;;;3.60;;
79790;SDS011;69278;52.220;5.172;2023-06-05T09:39:35;7.32;;;4.00;;
79790;SDS011;69278;52.220;5.172;2023-06-05T09:42:03;5.95;;;3.40;;
79790;SDS011;69278;52.220;5.172;2023-06-05T09:44:30;6.27;;;3.77;;
79790;SDS011;69278;52.220;5.172;2023-06-05T09:49:32;8.23;;;3.67;;
79790;SDS011;69278;52.220;5.172;2023-06-05T09:52:08;5.55;;;3.08;;
79790;SDS011;69278;52.220;5.172;2023-06-05T09:54:37;5.97;;;3.80;;
79790;SDS011;69278;52.220;5.172;2023-06-05T09:57:05;9.97;;;3.70;;
79790;SDS011;69278;52.220;5.172;2023-06-05T09:59:39;6.63;;;3.70;;
79790;SDS011;69278;52.220;5.172;2023-06-05T10:02:12;5.40;;;3.53;;
79790;SDS011;69278;52.220;5.172;2023-06-05T10:04:44;7.50;;;4.00;;
79790;SDS011;69278;52.220;5.172;2023-06-05T10:07:13;7.10;;;3.50;;
79790;SDS011;69278;52.220;5.172;2023-06-05T10:09:39;6.53;;;3.50;;
79790;SDS011;69278;52.220;5.172;2023-06-05T10:12:07;6.65;;;3.97;;
79790;SDS011;69278;52.220;5.172;2023-06-05T10:14:36;6.10;;;3.60;;
79790;SDS011;69278;52.220;5.172;2023-06-05T10:17:06;6.45;;;3.30;;
79790;SDS011;69278;52.220;5.172;2023-06-05T10:19:33;5.88;;;3.42;;
79790;SDS011;69278;52.220;5.172;2023-06-05T10:22:00;5.70;;;3.70;;
79790;SDS011;69278;52.220;5.172;2023-06-05T10:24:33;7.55;;;3.60;;
79790;SDS011;69278;52.220;5.172;2023-06-05T10:32:37;6.85;;;3.47;;
79790;SDS011;69278;52.220;5.172;2023-06-05T10:38:17;5.55;;;3.10;;
79790;SDS011;69278;52.220;5.172;2023-06-05T10:40:56;5.40;;;3.20;;
79790;SDS011;69278;52.220;5.172;2023-06-05T10:45:59;4.13;;;2.80;;
79790;SDS011;69278;52.220;5.172;2023-06-05T10:54:11;5.97;;;3.35;;
79790;SDS011;69278;52.220;5.172;2023-06-05T10:56:57;6.07;;;3.33;;
79790;SDS011;69278;52.220;5.172;2023-06-05T10:59:37;5.93;;;3.17;;
79790;SDS011;69278;52.220;5.172;2023-06-05T11:07:18;4.90;;;3.10;;
79790;SDS011;69278;52.220;5.172;2023-06-05T11:15:02;6.87;;;3.20;;
79790;SDS011;69278;52.220;5.172;2023-06-05T11:17:33;4.80;;;3.10;;
79790;SDS011;69278;52.220;5.172;2023-06-05T11:20:01;6.32;;;2.97;;
79790;SDS011;69278;52.220;5.172;2023-06-05T11:22:33;6.10;;;2.85;;
79790;SDS011;69278;52.220;5.172;2023-06-05T11:27:51;5.10;;;3.07;;
79790;SDS011;69278;52.220;5.172;2023-06-05T11:30:19;5.80;;;3.10;;
79790;SDS011;69278;52.220;5.172;2023-06-05T11:33:05;6.10;;;3.10;;
79790;SDS011;69278;52.220;5.172;2023-06-05T11:35:35;5.80;;;3.00;;
79790;SDS011;69278;52.220;5.172;2023-06-05T11:38:06;5.10;;;3.00;;
79790;SDS011;69278;52.220;5.172;2023-06-05T11:40:36;6.30;;;3.03;;
79790;SDS011;69278;52.220;5.172;2023-06-05T11:43:04;6.13;;;3.25;;
79790;SDS011;69278;52.220;5.172;2023-06-05T11:45:33;8.70;;;3.20;;
79790;SDS011;69278;52.220;5.172;2023-06-05T11:48:07;5.03;;;3.28;;
79790;SDS011;69278;52.220;5.172;2023-06-05T11:50:35;5.47;;;3.08;;
79790;SDS011;69278;52.220;5.172;2023-06-05T11:53:03;8.57;;;3.33;;
79790;SDS011;69278;52.220;5.172;2023-06-05T11:55:33;5.25;;;3.20;;
79790;SDS011;69278;52.220;5.172;2023-06-05T11:58:24;5.43;;;2.78;;
79790;SDS011;69278;52.220;5.172;2023-06-05T12:01:03;5.57;;;3.42;;
79790;SDS011;69278;52.220;5.172;2023-06-05T12:03:49;7.78;;;3.25;;
79790;SDS011;69278;52.220;5.172;2023-06-05T12:06:28;6.03;;;3.60;;
79790;SDS011;69278;52.220;5.172;2023-06-05T12:09:08;6.40;;;3.40;;
79790;SDS011;69278;52.220;5.172;2023-06-05T12:11:35;6.72;;;3.80;;
79790;SDS011;69278;52.220;5.172;2023-06-05T12:14:04;6.95;;;3.55;;
79790;SDS011;69278;52.220;5.172;2023-06-05T12:16:35;8.55;;;3.60;;
79790;SDS011;69278;52.220;5.172;2023-06-05T12:19:10;6.40;;;3.63;;
79790;SDS011;69278;52.220;5.172;2023-06-05T12:21:45;6.57;;;3.60;;
79790;SDS011;69278;52.220;5.172;2023-06-05T12:24:25;7.32;;;3.83;;
79790;SDS011;69278;52.220;5.172;2023-06-05T12:26:56;7.32;;;3.70;;
79790;SDS011;69278;52.220;5.172;2023-06-05T12:29:26;6.82;;;3.53;;
79790;SDS011;69278;52.220;5.172;2023-06-05T12:31:57;6.67;;;3.93;;
79790;SDS011;69278;52.220;5.172;2023-06-05T12:34:38;5.55;;;3.45;;
79790;SDS011;69278;52.220;5.172;2023-06-05T12:37:49;7.95;;;3.60;;
79790;SDS011;69278;52.220;5.172;2023-06-05T12:40:11;6.80;;;3.60;;
79790;SDS011;69278;52.220;5.172;2023-06-05T12:42:38;6.63;;;3.80;;
79790;SDS011;69278;52.220;5.172;2023-06-05T12:45:07;6.27;;;3.60;;
79790;SDS011;69278;52.220;5.172;2023-06-05T12:47:34;5.88;;;3.20;;
79790;SDS011;69278;52.220;5.172;2023-06-05T12:50:02;8.75;;;3.42;;
79790;SDS011;69278;52.220;5.172;2023-06-05T12:52:30;6.97;;;3.45;;
79790;SDS011;69278;52.220;5.172;2023-06-05T12:54:57;6.40;;;3.60;;
79790;SDS011;69278;52.220;5.172;2023-06-05T12:57:24;6.70;;;3.90;;
79790;SDS011;69278;52.220;5.172;2023-06-05T12:59:51;6.30;;;3.72;;
79790;SDS011;69278;52.220;5.172;2023-06-05T13:02:19;5.65;;;3.47;;
79790;SDS011;69278;52.220;5.172;2023-06-05T13:04:47;9.55;;;3.55;;
79790;SDS011;69278;52.220;5.172;2023-06-05T13:07:13;6.82;;;3.58;;
79790;SDS011;69278;52.220;5.172;2023-06-05T13:09:40;5.80;;;3.47;;
79790;SDS011;69278;52.220;5.172;2023-06-05T13:12:06;6.47;;;3.63;;
79790;SDS011;69278;52.220;5.172;2023-06-05T13:14:33;4.93;;;3.33;;
79790;SDS011;69278;52.220;5.172;2023-06-05T13:17:00;5.45;;;3.35;;
79790;SDS011;69278;52.220;5.172;2023-06-05T13:19:27;6.38;;;4.07;;
79790;SDS011;69278;52.220;5.172;2023-06-05T13:21:53;5.70;;;3.57;;
79790;SDS011;69278;52.220;5.172;2023-06-05T13:24:20;6.95;;;3.70;;
79790;SDS011;69278;52.220;5.172;2023-06-05T13:26:46;6.28;;;2.97;;
79790;SDS011;69278;52.220;5.172;2023-06-05T13:29:13;5.97;;;3.60;;
79790;SDS011;69278;52.220;5.172;2023-06-05T13:31:40;5.80;;;3.60;;
79790;SDS011;69278;52.220;5.172;2023-06-05T13:34:07;5.70;;;3.43;;
79790;SDS011;69278;52.220;5.172;2023-06-05T13:36:33;5.43;;;3.25;;
79790;SDS011;69278;52.220;5.172;2023-06-05T13:39:00;7.40;;;3.17;;
79790;SDS011;69278;52.220;5.172;2023-06-05T13:41:26;5.60;;;3.80;;
79790;SDS011;69278;52.220;5.172;2023-06-05T13:43:53;8.23;;;3.42;;
79790;SDS011;69278;52.220;5.172;2023-06-05T13:46:22;6.53;;;3.63;;
79790;SDS011;69278;52.220;5.172;2023-06-05T13:48:48;6.00;;;3.40;;
79790;SDS011;69278;52.220;5.172;2023-06-05T13:51:15;5.00;;;3.33;;
79790;SDS011;69278;52.220;5.172;2023-06-05T13:53:42;4.65;;;3.08;;
79790;SDS011;69278;52.220;5.172;2023-06-05T13:56:08;4.90;;;3.40;;
79790;SDS011;69278;52.220;5.172;2023-06-05T13:58:35;6.80;;;3.40;;
79790;SDS011;69278;52.220;5.172;2023-06-05T14:01:02;6.32;;;3.30;;
79790;SDS011;69278;52.220;5.172;2023-06-05T14:03:29;6.30;;;3.53;;
79790;SDS011;69278;52.220;5.172;2023-06-05T14:05:55;7.30;;;3.60;;
79790;SDS011;69278;52.220;5.172;2023-06-05T14:08:22;6.72;;;3.45;;
79790;SDS011;69278;52.220;5.172;2023-06-05T14:10:48;8.13;;;3.60;;
79790;SDS011;69278;52.220;5.172;2023-06-05T14:13:15;5.90;;;3.60;;
79790;SDS011;69278;52.220;5.172;2023-06-05T14:15:42;5.43;;;3.30;;
79790;SDS011;69278;52.220;5.172;2023-06-05T14:18:08;7.18;;;3.33;;
79790;SDS011;69278;52.220;5.172;2023-06-05T14:20:35;5.63;;;3.70;;
79790;SDS011;69278;52.220;5.172;2023-06-05T14:23:02;6.93;;;3.67;;
79790;SDS011;69278;52.220;5.172;2023-06-05T14:25:29;6.75;;;3.55;;
79790;SDS011;69278;52.220;5.172;2023-06-05T14:27:56;5.93;;;3.70;;
79790;SDS011;69278;52.220;5.172;2023-06-05T14:30:24;6.75;;;3.60;;
79790;SDS011;69278;52.220;5.172;2023-06-05T14:32:53;6.63;;;3.33;;
79790;SDS011;69278;52.220;5.172;2023-06-05T14:35:21;7.00;;;3.57;;
79790;SDS011;69278;52.220;5.172;2023-06-05T14:37:48;8.05;;;3.10;;
79790;SDS011;69278;52.220;5.172;2023-06-05T14:40:15;7.05;;;3.45;;
79790;SDS011;69278;52.220;5.172;2023-06-05T14:42:41;6.07;;;3.67;;
79790;SDS011;69278;52.220;5.172;2023-06-05T14:45:08;7.53;;;3.13;;
79790;SDS011;69278;52.220;5.172;2023-06-05T14:47:35;9.17;;;3.80;;
79790;SDS011;69278;52.220;5.172;2023-06-05T14:50:05;5.75;;;3.35;;
79790;SDS011;69278;52.220;5.172;2023-06-05T14:52:33;7.82;;;3.70;;
79790;SDS011;69278;52.220;5.172;2023-06-05T14:55:00;5.93;;;3.17;;
79790;SDS011;69278;52.220;5.172;2023-06-05T14:57:31;5.60;;;3.55;;
79790;SDS011;69278;52.220;5.172;2023-06-05T14:59:58;6.47;;;3.50;;
79790;SDS011;69278;52.220;5.172;2023-06-05T15:02:25;6.80;;;3.63;;
79790;SDS011;69278;52.220;5.172;2023-06-05T15:04:52;7.90;;;3.95;;
79790;SDS011;69278;52.220;5.172;2023-06-05T15:07:19;6.28;;;3.88;;
79790;SDS011;69278;52.220;5.172;2023-06-05T15:09:47;8.20;;;3.50;;
79790;SDS011;69278;52.220;5.172;2023-06-05T15:12:14;7.70;;;4.17;;
79790;SDS011;69278;52.220;5.172;2023-06-05T15:14:41;8.98;;;3.40;;
79790;SDS011;69278;52.220;5.172;2023-06-05T15:17:08;6.95;;;4.03;;
79790;SDS011;69278;52.220;5.172;2023-06-05T15:19:35;7.97;;;3.90;;
79790;SDS011;69278;52.220;5.172;2023-06-05T15:22:01;6.13;;;3.60;;
79790;SDS011;69278;52.220;5.172;2023-06-05T15:24:28;8.17;;;4.10;;
79790;SDS011;69278;52.220;5.172;2023-06-05T15:26:54;7.28;;;4.28;;
79790;SDS011;69278;52.220;5.172;2023-06-05T15:29:21;7.63;;;3.85;;
79790;SDS011;69278;52.220;5.172;2023-06-05T15:31:47;6.57;;;3.80;;
79790;SDS011;69278;52.220;5.172;2023-06-05T15:34:15;5.82;;;3.70;;
79790;SDS011;69278;52.220;5.172;2023-06-05T15:36:42;7.57;;;3.80;;
79790;SDS011;69278;52.220;5.172;2023-06-05T15:39:08;5.90;;;3.35;;
79790;SDS011;69278;52.220;5.172;2023-06-05T15:41:38;7.82;;;3.80;;